LOT3516 EPRZ-EPGD
Flight info
| Callsign | LOT3516 |
|---|---|
| Flight time | 0h 55m |
| Altitude | 32000 |
| Route | ETITI L981 KOTEK N133 GRUDA Z95 OSLOG |
| Aircraft | B38M/M-SDE1FGHILORVWXY/HB1 |
Departure
| Time | 2026-04-26 17:47 |
|---|---|
| Airport | Rzeszów-Jasionka Airport (EPRZ) |
Arrival
| Time | 2026-04-26 18:42 |
|---|---|
| Airport | Gdańsk Lech Wałęsa Airport (EPGD) |
| Time | Latitude | Longitude | Altitude | Speed | Heading |
|---|---|---|---|---|---|
| 2026-04-26 17:23 | 50.11423 | 22.02627 | 694 ft | 0 kts | 1° |
| 2026-04-26 17:38 | 50.11421 | 22.02627 | 694 ft | 2 kts | 1° |
| 2026-04-26 17:39 | 50.11396 | 22.02627 | 685 ft | 4 kts | 360° |
| 2026-04-26 17:39 | 50.11369 | 22.02625 | 689 ft | 4 kts | 12° |
| 2026-04-26 17:39 | 50.11348 | 22.02615 | 689 ft | 4 kts | 21° |
| 2026-04-26 17:39 | 50.11327 | 22.02596 | 691 ft | 4 kts | 53° |
| 2026-04-26 17:40 | 50.11322 | 22.02578 | 686 ft | 0 kts | 91° |
| 2026-04-26 17:42 | 50.11322 | 22.02590 | 685 ft | 3 kts | 91° |
| 2026-04-26 17:42 | 50.11322 | 22.02645 | 691 ft | 7 kts | 91° |
| 2026-04-26 17:42 | 50.11299 | 22.02733 | 690 ft | 10 kts | 149° |
| 2026-04-26 17:42 | 50.11221 | 22.02743 | 694 ft | 10 kts | 181° |
| 2026-04-26 17:43 | 50.11142 | 22.02741 | 690 ft | 12 kts | 181° |
| 2026-04-26 17:43 | 50.11053 | 22.02739 | 693 ft | 11 kts | 181° |
| 2026-04-26 17:43 | 50.10989 | 22.02795 | 696 ft | 13 kts | 108° |
| 2026-04-26 17:43 | 50.10982 | 22.02964 | 695 ft | 20 kts | 91° |
| 2026-04-26 17:44 | 50.10978 | 22.03248 | 690 ft | 33 kts | 91° |
| 2026-04-26 17:44 | 50.10973 | 22.03638 | 689 ft | 36 kts | 91° |
| 2026-04-26 17:44 | 50.10967 | 22.04044 | 685 ft | 34 kts | 91° |
| 2026-04-26 17:44 | 50.10963 | 22.04339 | 682 ft | 25 kts | 91° |
| 2026-04-26 17:45 | 50.10949 | 22.04526 | 678 ft | 13 kts | 109° |
| 2026-04-26 17:45 | 50.10954 | 22.04604 | 679 ft | 3 kts | 20° |
| 2026-04-26 17:45 | 50.10967 | 22.04581 | 681 ft | 3 kts | 270° |
| 2026-04-26 17:45 | 50.10963 | 22.04502 | 682 ft | 0 kts | 270° |
| 2026-04-26 17:46 | 50.10963 | 22.04494 | 682 ft | 6 kts | 270° |
| 2026-04-26 17:46 | 50.10968 | 22.03992 | 685 ft | 86 kts | 271° |
| 2026-04-26 17:46 | 50.10987 | 22.02692 | 701 ft | 151 kts | 271° |
| 2026-04-26 17:46 | 50.11029 | 22.00927 | 1171 ft | 171 kts | 276° |
| 2026-04-26 17:47 | 50.11069 | 21.99111 | 2254 ft | 163 kts | 278° |
| 2026-04-26 17:47 | 50.11088 | 21.97886 | 2809 ft | 174 kts | 277° |
| 2026-04-26 17:47 | 50.11127 | 21.95137 | 3635 ft | 208 kts | 276° |
| 2026-04-26 17:47 | 50.11152 | 21.92795 | 4343 ft | 229 kts | 277° |
| 2026-04-26 17:48 | 50.11463 | 21.90418 | 5470 ft | 226 kts | 297° |
| 2026-04-26 17:48 | 50.12354 | 21.88299 | 6323 ft | 239 kts | 310° |
| 2026-04-26 17:48 | 50.13273 | 21.86119 | 7331 ft | 244 kts | 304° |
| 2026-04-26 17:48 | 50.14168 | 21.83867 | 8440 ft | 246 kts | 306° |
| 2026-04-26 17:49 | 50.15092 | 21.81584 | 9511 ft | 249 kts | 307° |
| 2026-04-26 17:49 | 50.16211 | 21.79539 | 10490 ft | 250 kts | 320° |
| 2026-04-26 17:49 | 50.17505 | 21.77601 | 11060 ft | 268 kts | 319° |
| 2026-04-26 17:49 | 50.18886 | 21.75486 | 11482 ft | 289 kts | 318° |
| 2026-04-26 17:50 | 50.20358 | 21.73218 | 11977 ft | 304 kts | 318° |
| 2026-04-26 17:50 | 50.21885 | 21.70862 | 12706 ft | 310 kts | 318° |
| 2026-04-26 17:50 | 50.23419 | 21.68494 | 13667 ft | 311 kts | 318° |
| 2026-04-26 17:50 | 50.24965 | 21.66109 | 14449 ft | 313 kts | 318° |
| 2026-04-26 17:51 | 50.26517 | 21.63712 | 15191 ft | 315 kts | 318° |
| 2026-04-26 17:51 | 50.28086 | 21.61287 | 15914 ft | 318 kts | 318° |
| 2026-04-26 17:51 | 50.29663 | 21.58848 | 16627 ft | 320 kts | 318° |
| 2026-04-26 17:51 | 50.30717 | 21.57218 | 17093 ft | 322 kts | 318° |
| 2026-04-26 17:52 | 50.32312 | 21.54745 | 17786 ft | 324 kts | 317° |
| 2026-04-26 17:52 | 50.36092 | 21.48879 | 19206 ft | 330 kts | 317° |
| 2026-04-26 17:52 | 50.37706 | 21.46370 | 19743 ft | 333 kts | 317° |
| 2026-04-26 17:53 | 50.39359 | 21.43797 | 20284 ft | 336 kts | 317° |
| 2026-04-26 17:53 | 50.41018 | 21.41212 | 20812 ft | 338 kts | 317° |
| 2026-04-26 17:53 | 50.42693 | 21.38600 | 21336 ft | 341 kts | 316° |
| 2026-04-26 17:54 | 50.46082 | 21.33308 | 22359 ft | 346 kts | 316° |
| 2026-04-26 17:54 | 50.47795 | 21.30628 | 22851 ft | 349 kts | 316° |
| 2026-04-26 17:54 | 50.49522 | 21.27924 | 23345 ft | 352 kts | 316° |
| 2026-04-26 17:54 | 50.51259 | 21.25201 | 23822 ft | 355 kts | 316° |
| 2026-04-26 17:55 | 50.53016 | 21.22444 | 24222 ft | 357 kts | 315° |
| 2026-04-26 17:55 | 50.54777 | 21.19676 | 24627 ft | 360 kts | 315° |
| 2026-04-26 17:55 | 50.56552 | 21.16884 | 25028 ft | 362 kts | 315° |
| 2026-04-26 17:55 | 50.58341 | 21.14066 | 25432 ft | 365 kts | 315° |
| 2026-04-26 17:56 | 50.60137 | 21.11235 | 25829 ft | 367 kts | 315° |
| 2026-04-26 17:56 | 50.63767 | 21.05501 | 26602 ft | 372 kts | 315° |
| 2026-04-26 17:57 | 50.67443 | 20.99681 | 27338 ft | 377 kts | 315° |
| 2026-04-26 17:57 | 50.69300 | 20.96735 | 27704 ft | 379 kts | 315° |
| 2026-04-26 17:57 | 50.71162 | 20.93780 | 28050 ft | 382 kts | 314° |
| 2026-04-26 17:57 | 50.73041 | 20.90792 | 28396 ft | 384 kts | 314° |
| 2026-04-26 17:58 | 50.78734 | 20.81721 | 29419 ft | 390 kts | 314° |
| 2026-04-26 17:59 | 50.82546 | 20.75627 | 30325 ft | 389 kts | 314° |
| 2026-04-26 17:59 | 50.84441 | 20.72592 | 30696 ft | 388 kts | 314° |
| 2026-04-26 17:59 | 50.86337 | 20.69552 | 31080 ft | 387 kts | 314° |
| 2026-04-26 17:59 | 50.88223 | 20.66525 | 31457 ft | 386 kts | 314° |
| 2026-04-26 18:00 | 50.90114 | 20.63485 | 31850 ft | 385 kts | 313° |
| 2026-04-26 18:00 | 50.91990 | 20.60466 | 32151 ft | 386 kts | 313° |
| 2026-04-26 18:00 | 50.95748 | 20.54407 | 32221 ft | 387 kts | 313° |
| 2026-04-26 18:01 | 50.99561 | 20.48244 | 32200 ft | 392 kts | 313° |
| 2026-04-26 18:01 | 51.03376 | 20.42064 | 32199 ft | 392 kts | 313° |
| 2026-04-26 18:02 | 51.06555 | 20.36899 | 32223 ft | 392 kts | 313° |
| 2026-04-26 18:02 | 51.11012 | 20.29642 | 32211 ft | 393 kts | 313° |
| 2026-04-26 18:03 | 51.14829 | 20.23413 | 32222 ft | 393 kts | 313° |
| 2026-04-26 18:03 | 51.18642 | 20.17172 | 32224 ft | 393 kts | 313° |
| 2026-04-26 18:04 | 51.22428 | 20.10959 | 32221 ft | 393 kts | 313° |
| 2026-04-26 18:05 | 51.28170 | 20.01507 | 32218 ft | 394 kts | 313° |
| 2026-04-26 18:05 | 51.31960 | 19.95250 | 32220 ft | 394 kts | 313° |
| 2026-04-26 18:06 | 51.36104 | 19.89442 | 32231 ft | 399 kts | 328° |
| 2026-04-26 18:06 | 51.41310 | 19.86280 | 32231 ft | 407 kts | 339° |
| 2026-04-26 18:07 | 51.46713 | 19.83651 | 32230 ft | 407 kts | 338° |
| 2026-04-26 18:07 | 51.52161 | 19.81138 | 32237 ft | 407 kts | 339° |
| 2026-04-26 18:08 | 51.57608 | 19.78687 | 32241 ft | 407 kts | 339° |
| 2026-04-26 18:08 | 51.63072 | 19.76235 | 32239 ft | 407 kts | 339° |
| 2026-04-26 18:09 | 51.68524 | 19.73783 | 32236 ft | 407 kts | 339° |
| 2026-04-26 18:09 | 51.73982 | 19.71323 | 32242 ft | 407 kts | 339° |
| 2026-04-26 18:10 | 51.79433 | 19.68859 | 32244 ft | 407 kts | 339° |
| 2026-04-26 18:10 | 51.84890 | 19.66386 | 32242 ft | 407 kts | 339° |
| 2026-04-26 18:11 | 51.90341 | 19.63910 | 32237 ft | 407 kts | 339° |
| 2026-04-26 18:11 | 51.95798 | 19.61424 | 32237 ft | 407 kts | 339° |
| 2026-04-26 18:12 | 52.01170 | 19.58972 | 32240 ft | 407 kts | 339° |
| 2026-04-26 18:12 | 52.06692 | 19.56444 | 32244 ft | 407 kts | 339° |
| 2026-04-26 18:13 | 52.12146 | 19.53941 | 32247 ft | 407 kts | 339° |
| 2026-04-26 18:13 | 52.17591 | 19.51436 | 32244 ft | 407 kts | 339° |
| 2026-04-26 18:14 | 52.23019 | 19.48933 | 32245 ft | 406 kts | 339° |
| 2026-04-26 18:14 | 52.28471 | 19.46412 | 32247 ft | 406 kts | 339° |
| 2026-04-26 18:15 | 52.33907 | 19.43892 | 32244 ft | 406 kts | 339° |
| 2026-04-26 18:15 | 52.39346 | 19.41364 | 32246 ft | 406 kts | 339° |
| 2026-04-26 18:16 | 52.44779 | 19.38833 | 32248 ft | 406 kts | 339° |
| 2026-04-26 18:16 | 52.52928 | 19.35023 | 32247 ft | 406 kts | 339° |
| 2026-04-26 18:17 | 52.58359 | 19.32476 | 32250 ft | 406 kts | 339° |
| 2026-04-26 18:17 | 52.63785 | 19.29925 | 32249 ft | 406 kts | 339° |
| 2026-04-26 18:18 | 52.69213 | 19.27368 | 32130 ft | 401 kts | 339° |
| 2026-04-26 18:18 | 52.71889 | 19.26104 | 31908 ft | 399 kts | 339° |
| 2026-04-26 18:18 | 52.74520 | 19.24860 | 31696 ft | 399 kts | 339° |
| 2026-04-26 18:19 | 52.77188 | 19.23596 | 31483 ft | 400 kts | 339° |
| 2026-04-26 18:19 | 52.79868 | 19.22325 | 31268 ft | 400 kts | 339° |
| 2026-04-26 18:19 | 52.82543 | 19.21054 | 31062 ft | 401 kts | 339° |
| 2026-04-26 18:19 | 52.85229 | 19.19777 | 30589 ft | 400 kts | 339° |
| 2026-04-26 18:20 | 52.87926 | 19.18489 | 29330 ft | 407 kts | 339° |
| 2026-04-26 18:20 | 52.90643 | 19.17191 | 28430 ft | 406 kts | 340° |
| 2026-04-26 18:20 | 52.93343 | 19.15902 | 27854 ft | 404 kts | 340° |
| 2026-04-26 18:20 | 52.94257 | 19.15465 | 27640 ft | 405 kts | 340° |
| 2026-04-26 18:21 | 52.98772 | 19.13303 | 26596 ft | 407 kts | 340° |
| 2026-04-26 18:21 | 53.00574 | 19.12439 | 26180 ft | 408 kts | 340° |
| 2026-04-26 18:21 | 53.03327 | 19.11119 | 25558 ft | 405 kts | 340° |
| 2026-04-26 18:21 | 53.06890 | 19.09409 | 24749 ft | 400 kts | 340° |
| 2026-04-26 18:22 | 53.08662 | 19.08602 | 24362 ft | 398 kts | 343° |
| 2026-04-26 18:22 | 53.11422 | 19.08143 | 23711 ft | 399 kts | 352° |
| 2026-04-26 18:22 | 53.14166 | 19.07741 | 23010 ft | 393 kts | 349° |
| 2026-04-26 18:22 | 53.16868 | 19.07252 | 22368 ft | 388 kts | 349° |
| 2026-04-26 18:23 | 53.19540 | 19.06742 | 21720 ft | 384 kts | 349° |
| 2026-04-26 18:23 | 53.22172 | 19.06223 | 21090 ft | 379 kts | 349° |
| 2026-04-26 18:23 | 53.24777 | 19.05702 | 20485 ft | 375 kts | 349° |
| 2026-04-26 18:23 | 53.27356 | 19.05185 | 19879 ft | 371 kts | 349° |
| 2026-04-26 18:24 | 53.29908 | 19.04672 | 19288 ft | 367 kts | 349° |
| 2026-04-26 18:24 | 53.32439 | 19.04161 | 18716 ft | 364 kts | 349° |
| 2026-04-26 18:24 | 53.34934 | 19.03657 | 18088 ft | 360 kts | 349° |
| 2026-04-26 18:24 | 53.37414 | 19.03156 | 17494 ft | 358 kts | 349° |
| 2026-04-26 18:25 | 53.39890 | 19.02654 | 16937 ft | 357 kts | 349° |
| 2026-04-26 18:25 | 53.42347 | 19.02157 | 16404 ft | 355 kts | 349° |
| 2026-04-26 18:25 | 53.44794 | 19.01660 | 15880 ft | 354 kts | 349° |
| 2026-04-26 18:25 | 53.47237 | 19.01165 | 15367 ft | 353 kts | 350° |
| 2026-04-26 18:26 | 53.49671 | 19.00670 | 14858 ft | 351 kts | 350° |
| 2026-04-26 18:26 | 53.52090 | 19.00178 | 14354 ft | 350 kts | 350° |
| 2026-04-26 18:26 | 53.54507 | 18.99685 | 13835 ft | 349 kts | 350° |
| 2026-04-26 18:26 | 53.56899 | 18.99197 | 13302 ft | 344 kts | 350° |
| 2026-04-26 18:27 | 53.59231 | 18.98721 | 12825 ft | 339 kts | 350° |
| 2026-04-26 18:27 | 53.61548 | 18.98248 | 12378 ft | 334 kts | 350° |
| 2026-04-26 18:27 | 53.63836 | 18.97780 | 11994 ft | 328 kts | 350° |
| 2026-04-26 18:27 | 53.66062 | 18.97324 | 11817 ft | 316 kts | 350° |
| 2026-04-26 18:28 | 53.68212 | 18.96883 | 11652 ft | 305 kts | 350° |
| 2026-04-26 18:28 | 53.70285 | 18.96457 | 11478 ft | 295 kts | 350° |
| 2026-04-26 18:28 | 53.72289 | 18.96045 | 11335 ft | 285 kts | 350° |
| 2026-04-26 18:28 | 53.74226 | 18.95646 | 11190 ft | 276 kts | 350° |
| 2026-04-26 18:29 | 53.76102 | 18.95260 | 11053 ft | 267 kts | 350° |
| 2026-04-26 18:29 | 53.77917 | 18.94886 | 10924 ft | 259 kts | 350° |
| 2026-04-26 18:29 | 53.79698 | 18.94519 | 10793 ft | 256 kts | 350° |
| 2026-04-26 18:29 | 53.81464 | 18.94155 | 10667 ft | 256 kts | 350° |
| 2026-04-26 18:30 | 53.83234 | 18.93789 | 10538 ft | 256 kts | 350° |
| 2026-04-26 18:30 | 53.85005 | 18.93422 | 10416 ft | 256 kts | 350° |
| 2026-04-26 18:30 | 53.86778 | 18.93056 | 10306 ft | 256 kts | 350° |
| 2026-04-26 18:30 | 53.88544 | 18.92690 | 10268 ft | 256 kts | 350° |
| 2026-04-26 18:31 | 53.90317 | 18.92323 | 10264 ft | 257 kts | 350° |
| 2026-04-26 18:31 | 53.92089 | 18.91955 | 10263 ft | 257 kts | 350° |
| 2026-04-26 18:31 | 53.93849 | 18.91590 | 10070 ft | 254 kts | 350° |
| 2026-04-26 18:31 | 53.95614 | 18.91224 | 9661 ft | 255 kts | 350° |
| 2026-04-26 18:32 | 53.97369 | 18.90859 | 9290 ft | 254 kts | 351° |
| 2026-04-26 18:32 | 53.99127 | 18.90492 | 8921 ft | 254 kts | 351° |
| 2026-04-26 18:32 | 54.00872 | 18.90129 | 8569 ft | 253 kts | 351° |
| 2026-04-26 18:32 | 54.02617 | 18.89765 | 8218 ft | 252 kts | 351° |
| 2026-04-26 18:33 | 54.04361 | 18.89401 | 7875 ft | 251 kts | 351° |
| 2026-04-26 18:33 | 54.06094 | 18.89038 | 7527 ft | 251 kts | 351° |
| 2026-04-26 18:33 | 54.07819 | 18.88678 | 7206 ft | 250 kts | 351° |
| 2026-04-26 18:33 | 54.09545 | 18.88317 | 6871 ft | 249 kts | 352° |
| 2026-04-26 18:34 | 54.11244 | 18.87961 | 6551 ft | 248 kts | 352° |
| 2026-04-26 18:34 | 54.12980 | 18.87597 | 6201 ft | 248 kts | 352° |
| 2026-04-26 18:34 | 54.14695 | 18.87237 | 5788 ft | 250 kts | 352° |
| 2026-04-26 18:34 | 54.16435 | 18.86871 | 5330 ft | 254 kts | 352° |
| 2026-04-26 18:35 | 54.18175 | 18.86505 | 4991 ft | 254 kts | 352° |
| 2026-04-26 18:35 | 54.19911 | 18.86140 | 4780 ft | 248 kts | 352° |
| 2026-04-26 18:35 | 54.21597 | 18.85785 | 4656 ft | 239 kts | 352° |
| 2026-04-26 18:35 | 54.23222 | 18.85442 | 4530 ft | 231 kts | 351° |
| 2026-04-26 18:36 | 54.24782 | 18.85114 | 4412 ft | 222 kts | 351° |
| 2026-04-26 18:36 | 54.26294 | 18.84795 | 4290 ft | 216 kts | 351° |
| 2026-04-26 18:36 | 54.27695 | 18.84118 | 4157 ft | 206 kts | 326° |
| 2026-04-26 18:36 | 54.28645 | 18.82397 | 4102 ft | 195 kts | 305° |
| 2026-04-26 18:37 | 54.29305 | 18.80401 | 4070 ft | 187 kts | 298° |
| 2026-04-26 18:37 | 54.29837 | 18.78469 | 4038 ft | 175 kts | 297° |
| 2026-04-26 18:37 | 54.30328 | 18.76575 | 3981 ft | 174 kts | 296° |
| 2026-04-26 18:37 | 54.30798 | 18.74707 | 3757 ft | 168 kts | 295° |
| 2026-04-26 18:38 | 54.31250 | 18.72890 | 3549 ft | 163 kts | 295° |
| 2026-04-26 18:38 | 54.31679 | 18.71163 | 3358 ft | 151 kts | 295° |
| 2026-04-26 18:38 | 54.32089 | 18.69512 | 3155 ft | 150 kts | 295° |
| 2026-04-26 18:38 | 54.32496 | 18.67871 | 2943 ft | 149 kts | 294° |
| 2026-04-26 18:39 | 54.32901 | 18.66237 | 2749 ft | 149 kts | 294° |
| 2026-04-26 18:39 | 54.33304 | 18.64610 | 2539 ft | 148 kts | 294° |
| 2026-04-26 18:39 | 54.33700 | 18.63010 | 2341 ft | 140 kts | 293° |
| 2026-04-26 18:39 | 54.34066 | 18.61533 | 2195 ft | 131 kts | 293° |
| 2026-04-26 18:40 | 54.34416 | 18.60122 | 1989 ft | 127 kts | 292° |
| 2026-04-26 18:40 | 54.34760 | 18.58733 | 1795 ft | 126 kts | 292° |
| 2026-04-26 18:40 | 54.35102 | 18.57345 | 1607 ft | 126 kts | 292° |
| 2026-04-26 18:40 | 54.35442 | 18.55956 | 1395 ft | 127 kts | 292° |
| 2026-04-26 18:41 | 54.35796 | 18.54547 | 1176 ft | 130 kts | 291° |
| 2026-04-26 18:41 | 54.36155 | 18.53112 | 1003 ft | 132 kts | 291° |
| 2026-04-26 18:41 | 54.36511 | 18.51651 | 832 ft | 133 kts | 291° |
| 2026-04-26 18:41 | 54.36876 | 18.50177 | 662 ft | 136 kts | 292° |
| 2026-04-26 18:42 | 54.37247 | 18.48680 | 510 ft | 132 kts | 293° |
| 2026-04-26 18:42 | 54.37549 | 18.47463 | 466 ft | 79 kts | 292° |
| 2026-04-26 18:42 | 54.37664 | 18.47009 | 460 ft | 24 kts | 292° |
| 2026-04-26 18:42 | 54.37740 | 18.46690 | 460 ft | 32 kts | 293° |
| 2026-04-26 18:43 | 54.37834 | 18.46315 | 461 ft | 36 kts | 293° |
| 2026-04-26 18:43 | 54.37936 | 18.45964 | 459 ft | 28 kts | 306° |
| 2026-04-26 18:43 | 54.38041 | 18.45783 | 457 ft | 8 kts | 321° |
| 2026-04-26 18:43 | 54.38096 | 18.45713 | 457 ft | 11 kts | 335° |
| 2026-04-26 18:44 | 54.38143 | 18.45781 | 457 ft | 11 kts | 102° |
| 2026-04-26 18:44 | 54.38113 | 18.45904 | 459 ft | 11 kts | 114° |
| 2026-04-26 18:44 | 54.38102 | 18.46025 | 462 ft | 11 kts | 67° |
| 2026-04-26 18:44 | 54.38150 | 18.46092 | 462 ft | 5 kts | 25° |
| 2026-04-26 18:45 | 54.38161 | 18.46103 | 460 ft | 4 kts | 37° |
| 2026-04-26 18:45 | 54.38176 | 18.46162 | 462 ft | 7 kts | 99° |
| 2026-04-26 18:45 | 54.38153 | 18.46266 | 462 ft | 11 kts | 113° |
| 2026-04-26 18:46 | 54.38122 | 18.46389 | 459 ft | 5 kts | 111° |
| 2026-04-26 18:46 | 54.38133 | 18.46423 | 462 ft | 4 kts | 30° |
| 2026-04-26 18:46 | 54.38155 | 18.46441 | 462 ft | 2 kts | 24° |
| 2026-04-26 18:46 | 54.38156 | 18.46441 | 462 ft | 0 kts | 24° |